Time;durP1;ratioP1;P1;durP2;ratioP2;P2;SDS_P1;SDS_P2;PMS_P1;PMS_P2;Temp;Humidity;BMP_temperature;BMP_pressure;BME280_temperature;BME280_humidity;BME280_pressure;Samples;Min_cycle;Max_cycle;Signal;HPM_P1;HPM_P2
2022/04/22 00:00:19;;;;;;;8.95;2.15;;;;;;;19.13;43.18;101103.22;4954407;28;20027;-55
2022/04/22 00:02:45;;;;;;;6.70;1.73;;;;;;;18.92;44.20;101113.03;4953599;28;20073;-56
2022/04/22 00:05:11;;;;;;;8.20;2.00;;;;;;;18.98;44.39;101119.34;4954098;28;20027;-58
2022/04/22 00:07:38;;;;;;;4.78;1.85;;;;;;;18.84;43.74;101109.97;4957061;28;20379;-57
2022/04/22 00:10:06;;;;;;;6.18;2.13;;;;;;;18.91;43.68;101107.88;4994815;23;20556;-57
2022/04/22 00:12:32;;;;;;;8.45;2.42;;;;;;;18.78;44.48;101105.56;4993010;28;20084;-57
2022/04/22 00:15:00;;;;;;;6.70;1.98;;;;;;;18.81;43.12;101103.16;4992407;28;20030;-57
2022/04/22 00:17:27;;;;;;;7.75;2.15;;;;;;;18.80;45.34;101100.69;4985985;28;20049;-57
2022/04/22 00:19:53;;;;;;;6.97;2.22;;;;;;;18.81;46.39;101107.75;4973728;28;20029;-57
2022/04/22 00:22:19;;;;;;;12.43;2.55;;;;;;;18.76;47.36;101105.78;4973965;28;20483;-57
2022/04/22 00:24:46;;;;;;;10.93;2.85;;;;;;;18.79;47.20;101088.22;4955395;28;20043;-56
2022/04/22 00:27:12;;;;;;;8.32;2.42;;;;;;;18.66;48.32;101092.13;4957285;28;20031;-56
2022/04/22 00:29:38;;;;;;;10.23;3.38;;;;;;;18.56;49.18;101095.53;4967933;28;20443;-55
2022/04/22 00:32:05;;;;;;;12.20;3.08;;;;;;;18.41;50.11;101096.13;4952216;29;20471;-56
2022/04/22 00:34:31;;;;;;;13.10;3.45;;;;;;;18.44;49.49;101086.69;4959187;28;20110;-58
2022/04/22 00:36:58;;;;;;;10.23;2.47;;;;;;;18.06;50.43;101091.06;4969856;28;20027;-55
2022/04/22 00:39:24;;;;;;;9.30;3.13;;;;;;;17.96;51.08;101090.09;4971613;28;20530;-52
2022/04/22 00:41:50;;;;;;;10.15;2.90;;;;;;;17.72;51.85;101084.03;4971536;28;20030;-54
2022/04/22 00:44:16;;;;;;;9.65;3.28;;;;;;;17.74;52.06;101090.06;4967597;28;20113;-55
2022/04/22 00:46:42;;;;;;;9.70;2.90;;;;;;;17.71;52.09;101091.31;4971534;28;20078;-55
2022/04/22 00:49:09;;;;;;;9.82;2.65;;;;;;;17.60;52.35;101084.09;4972238;28;20569;-56
2022/04/22 00:51:35;;;;;;;11.65;3.15;;;;;;;17.54;54.35;101085.91;4972540;28;20034;-55
2022/04/22 00:54:03;;;;;;;7.43;2.33;;;;;;;17.29;58.59;101082.81;4957703;28;20023;-56
2022/04/22 00:56:30;;;;;;;8.60;3.25;;;;;;;17.28;58.94;101086.56;4953619;29;20034;-56
2022/04/22 00:58:57;;;;;;;12.50;2.88;;;;;;;17.09;61.59;101085.97;4953743;29;20110;-55
2022/04/22 01:01:24;;;;;;;8.93;2.78;;;;;;;16.89;60.64;101084.53;4955171;28;20114;-56
2022/04/22 01:12:08;;;;;;;5.05;1.58;;;;;;;16.30;57.15;101085.75;4976782;28;20042;-56
2022/04/22 01:14:35;;;;;;;9.40;1.70;;;;;;;16.32;55.67;101091.72;4957054;28;20475;-56
2022/04/22 01:17:01;;;;;;;6.40;1.60;;;;;;;16.14;55.55;101089.16;4956988;28;20470;-56
2022/04/22 01:19:28;;;;;;;5.47;1.27;;;;;;;16.26;56.78;101092.66;4957282;29;20136;-56
2022/04/22 01:21:55;;;;;;;4.00;1.50;;;;;;;16.37;56.49;101089.13;4957502;29;20087;-56
2022/04/22 01:24:21;;;;;;;6.43;1.30;;;;;;;16.30;55.44;101083.03;4967255;28;20022;-56
2022/04/22 01:26:49;;;;;;;4.78;1.70;;;;;;;16.20;56.87;101094.44;4976334;28;20031;-56
2022/04/22 01:29:15;;;;;;;5.18;1.58;;;;;;;16.16;57.88;101082.50;4976320;28;20027;-56
2022/04/22 01:31:44;;;;;;;5.38;2.00;;;;;;;16.23;56.73;101085.06;4976329;28;20034;-57
2022/04/22 01:34:11;;;;;;;7.25;1.52;;;;;;;16.12;57.02;101089.41;4976009;28;20034;-56
2022/04/22 01:36:37;;;;;;;7.20;2.10;;;;;;;16.03;56.48;101088.13;4976618;28;20038;-55
2022/04/22 01:39:04;;;;;;;5.57;1.70;;;;;;;15.90;57.20;101088.38;4968851;28;20026;-57
2022/04/22 01:41:30;;;;;;;8.18;2.10;;;;;;;15.80;57.74;101091.66;4968179;28;20031;-56
2022/04/22 01:43:57;;;;;;;8.80;2.20;;;;;;;15.59;58.17;101099.22;4975911;28;20027;-56
2022/04/22 01:46:23;;;;;;;6.20;1.80;;;;;;;15.66;57.35;101092.94;4962735;28;20039;-57
2022/04/22 01:48:50;;;;;;;5.25;1.50;;;;;;;15.58;58.08;101104.84;4956741;29;20568;-57
2022/04/22 01:51:16;;;;;;;8.52;1.88;;;;;;;15.56;57.37;101101.56;4959448;28;20423;-56
2022/04/22 01:53:43;;;;;;;10.65;1.55;;;;;;;15.44;58.25;101106.13;4958928;28;20070;-56
2022/04/22 01:56:09;;;;;;;8.68;1.83;;;;;;;15.32;58.45;101111.47;4956384;29;20130;-56
2022/04/22 01:58:35;;;;;;;10.52;2.10;;;;;;;15.26;59.13;101107.81;4969601;28;20034;-56
2022/04/22 02:01:02;;;;;;;7.28;1.90;;;;;;;15.27;59.15;101114.88;4975879;28;20031;-55
2022/04/22 02:03:29;;;;;;;7.30;1.40;;;;;;;15.30;58.89;101105.50;4975607;28;20027;-56
2022/04/22 02:05:55;;;;;;;5.05;1.70;;;;;;;15.14;59.47;101117.75;4975626;28;20023;-56
2022/04/22 02:08:22;;;;;;;10.23;1.73;;;;;;;15.05;60.19;101111.88;4969867;28;20022;-56
2022/04/22 02:10:48;;;;;;;9.93;2.03;;;;;;;15.07;60.15;101108.13;4975251;28;20046;-56
2022/04/22 02:13:14;;;;;;;8.90;1.83;;;;;;;14.92;60.53;101105.84;4998077;23;20051;-56
2022/04/22 02:15:40;;;;;;;5.40;1.45;;;;;;;15.01;60.39;101116.09;4982690;28;20081;-56
2022/04/22 02:18:07;;;;;;;10.52;2.05;;;;;;;14.95;60.60;101111.59;4956304;28;20035;-55
2022/04/22 02:20:33;;;;;;;8.10;2.38;;;;;;;15.03;60.47;101111.28;4956195;28;20027;-56
2022/04/22 02:22:59;;;;;;;8.20;1.88;;;;;;;14.90;60.90;101110.66;4971154;28;20023;-56
2022/04/22 02:31:22;;;;;;;8.90;2.30;;;;;;;14.70;62.14;101124.38;5034995;28;20044;-51
2022/04/22 02:33:48;;;;;;;5.57;1.92;;;;;;;14.82;61.81;101117.16;5034630;28;20096;-47
2022/04/22 02:36:16;;;;;;;8.48;3.22;;;;;;;14.81;62.16;101118.22;5034551;28;20026;-50
2022/04/22 02:38:42;;;;;;;6.72;2.03;;;;;;;14.73;62.26;101121.22;5035290;28;20029;-50
2022/04/22 02:46:37;;;;;;;8.38;1.95;;;;;;;14.73;62.80;101116.66;5034437;28;20044;-50
2022/04/22 02:49:04;;;;;;;10.73;2.40;;;;;;;14.78;62.65;101110.59;5035413;28;20021;-49
2022/04/22 02:51:30;;;;;;;9.95;2.15;;;;;;;14.77;62.64;101120.56;5034824;28;20104;-48
2022/04/22 02:53:56;;;;;;;8.95;2.20;;;;;;;14.70;62.74;101117.09;5035060;28;20469;-48
2022/04/22 02:56:23;;;;;;;6.50;2.90;;;;;;;14.80;62.01;101116.56;5034270;28;20443;-49
2022/04/22 02:58:50;;;;;;;12.15;2.88;;;;;;;14.69;62.10;101125.41;5034493;28;20476;-49
2022/04/22 03:01:16;;;;;;;10.48;2.50;;;;;;;14.68;61.77;101129.16;5034348;28;20117;-49
2022/04/22 03:03:44;;;;;;;9.73;1.88;;;;;;;14.58;61.63;101129.69;5034177;28;20530;-51
2022/04/22 03:06:10;;;;;;;8.23;2.35;;;;;;;14.47;61.67;101133.13;5033922;28;20121;-50
2022/04/22 03:08:37;;;;;;;8.55;2.45;;;;;;;14.44;61.80;101123.63;5033965;28;20465;-51
2022/04/22 03:11:03;;;;;;;7.50;2.30;;;;;;;14.23;62.09;101121.34;5034045;28;20452;-49
2022/04/22 03:13:30;;;;;;;11.30;2.58;;;;;;;14.23;62.60;101124.06;5034539;28;20029;-48
2022/04/22 03:16:00;;;;;;;7.68;1.85;;;;;;;14.21;62.16;101118.03;5033728;28;20036;-48
2022/04/22 03:18:27;;;;;;;7.78;1.73;;;;;;;14.08;62.77;101123.56;5033852;28;20033;-49
2022/04/22 03:20:54;;;;;;;8.88;2.75;;;;;;;14.03;63.07;101126.94;5033735;28;20035;-50
2022/04/22 03:23:20;;;;;;;9.32;2.35;;;;;;;14.00;62.90;101122.81;5033829;28;20047;-49
2022/04/22 03:25:47;;;;;;;10.55;3.15;;;;;;;13.81;63.66;101123.81;5033364;28;20021;-50
2022/04/22 03:28:13;;;;;;;9.45;2.22;;;;;;;13.84;63.50;101134.16;5032625;28;20065;-50
2022/04/22 03:30:39;;;;;;;12.07;2.47;;;;;;;13.73;63.53;101133.00;5033538;28;20061;-51
2022/04/22 03:33:05;;;;;;;9.60;2.65;;;;;;;13.73;63.81;101134.88;5033769;28;20068;-49
2022/04/22 03:35:31;;;;;;;6.78;2.55;;;;;;;13.76;64.24;101138.97;5033592;28;20450;-49
2022/04/22 03:37:58;;;;;;;13.10;2.72;;;;;;;13.83;63.44;101137.88;5033383;28;20029;-50
2022/04/22 03:40:24;;;;;;;9.75;1.98;;;;;;;13.83;63.31;101132.50;5033562;28;20083;-50
2022/04/22 03:42:52;;;;;;;8.80;2.38;;;;;;;13.78;63.65;101143.09;5033081;28;20029;-51
2022/04/22 03:45:20;;;;;;;11.43;2.55;;;;;;;13.65;64.24;101149.38;5033302;28;20036;-50
2022/04/22 03:47:46;;;;;;;10.02;2.33;;;;;;;13.66;64.18;101147.56;5033350;28;20049;-50
2022/04/22 03:50:13;;;;;;;9.93;2.10;;;;;;;13.58;63.56;101139.75;5033291;28;20151;-48
2022/04/22 03:52:39;;;;;;;10.18;2.45;;;;;;;13.51;64.33;101139.78;5033017;28;20037;-49
2022/04/22 03:55:06;;;;;;;9.00;1.60;;;;;;;13.41;64.58;101148.31;5033176;28;20381;-50
2022/04/22 04:00:17;;;;;;;8.90;2.55;;;;;;;13.48;64.05;101151.78;5033282;28;20044;-51
2022/04/22 04:02:43;;;;;;;9.40;2.67;;;;;;;13.49;64.19;101149.91;5032864;28;20033;-51
2022/04/22 04:05:10;;;;;;;12.20;2.33;;;;;;;13.50;64.08;101148.09;5032849;28;20026;-51
2022/04/22 04:07:36;;;;;;;7.47;1.92;;;;;;;13.55;63.59;101153.59;5032910;28;20036;-50
2022/04/22 04:18:16;;;;;;;7.45;2.17;;;;;;;13.38;64.94;101154.16;5033014;28;20103;-51
2022/04/22 04:23:44;;;;;;;6.55;1.98;;;;;;;13.53;64.38;101153.00;4991300;28;20397;-49
2022/04/22 04:26:11;;;;;;;10.63;2.50;;;;;;;13.41;64.61;101151.03;5024286;28;20045;-51
2022/04/22 04:28:39;;;;;;;11.02;2.22;;;;;;;13.44;64.88;101149.78;5032533;28;20132;-47
2022/04/22 04:31:11;;;;;;;8.27;2.20;;;;;;;13.52;64.17;101151.38;5032808;28;20032;-51
2022/04/22 04:33:38;;;;;;;12.93;2.38;;;;;;;13.39;64.90;101155.81;5033368;28;20025;-48
2022/04/22 04:36:05;;;;;;;8.52;2.38;;;;;;;13.39;65.10;101150.44;5032620;28;20339;-49
2022/04/22 04:38:32;;;;;;;7.63;2.15;;;;;;;13.37;65.17;101149.78;5032549;28;20022;-47
2022/04/22 04:40:59;;;;;;;7.85;2.50;;;;;;;13.35;65.25;101157.28;5035701;28;20040;-50
2022/04/22 04:43:26;;;;;;;7.50;2.13;;;;;;;13.17;65.98;101155.28;5036935;28;20060;-51
2022/04/22 04:45:53;;;;;;;11.10;2.55;;;;;;;13.19;65.53;101163.94;5036937;28;20385;-47
2022/04/22 04:48:19;;;;;;;12.07;2.22;;;;;;;13.30;65.11;101169.72;5036588;28;20031;-47
2022/04/22 04:50:46;;;;;;;11.10;2.63;;;;;;;13.24;65.45;101168.72;5036786;28;20021;-51
2022/04/22 04:53:13;;;;;;;6.15;2.20;;;;;;;13.21;65.54;101171.81;5036874;28;20106;-50
2022/04/22 04:55:40;;;;;;;7.53;2.22;;;;;;;13.24;64.78;101179.47;5036293;28;20060;-50
2022/04/22 04:58:07;;;;;;;8.05;2.42;;;;;;;13.22;65.42;101178.88;5036379;28;20083;-49
2022/04/22 05:00:34;;;;;;;6.93;2.45;;;;;;;13.07;66.07;101180.97;5036466;28;20101;-48
2022/04/22 05:03:00;;;;;;;10.60;2.20;;;;;;;13.16;65.83;101182.38;5036205;28;20140;-50
2022/04/22 05:05:27;;;;;;;11.32;2.15;;;;;;;13.05;66.28;101194.63;5036616;28;20033;-47
2022/04/22 05:07:59;;;;;;;21.02;3.05;;;;;;;13.10;66.09;101193.97;5036139;28;20469;-49
2022/04/22 05:10:31;;;;;;;10.52;2.38;;;;;;;12.97;66.54;101191.34;5036200;28;20021;-47
2022/04/22 05:12:59;;;;;;;10.73;2.40;;;;;;;13.09;65.75;101192.31;5036139;28;20049;-50
2022/04/22 05:15:26;;;;;;;6.43;1.90;;;;;;;13.12;65.54;101199.97;5036170;28;20115;-48
2022/04/22 05:17:55;;;;;;;10.85;2.25;;;;;;;13.14;65.92;101198.69;5036948;28;20032;-50
2022/04/22 05:20:25;;;;;;;11.38;3.00;;;;;;;13.12;65.95;101195.41;5036183;28;20025;-51
2022/04/22 05:22:55;;;;;;;10.75;2.40;;;;;;;13.22;65.65;101195.00;5036092;28;20021;-50
2022/04/22 05:25:22;;;;;;;8.75;2.40;;;;;;;13.15;65.39;101202.22;5035949;28;20173;-48
2022/04/22 05:27:49;;;;;;;7.32;2.35;;;;;;;13.02;66.08;101202.28;5036207;28;20040;-50
2022/04/22 05:33:03;;;;;;;13.77;2.45;;;;;;;13.16;66.08;101193.13;5036443;28;20488;-50
2022/04/22 05:35:30;;;;;;;9.02;2.53;;;;;;;13.10;66.20;101196.66;5035756;28;20522;-51
2022/04/22 05:38:02;;;;;;;13.27;2.50;;;;;;;13.16;66.28;101203.88;5018286;28;20052;-50
2022/04/22 05:40:31;;;;;;;11.15;2.30;;;;;;;13.14;66.43;101197.88;5035734;28;20113;-49
2022/04/22 05:42:58;;;;;;;11.48;2.70;;;;;;;13.21;66.83;101190.63;5035447;28;20033;-50
2022/04/22 05:45:26;;;;;;;11.77;2.88;;;;;;;13.22;66.13;101192.31;5035332;28;20045;-51
2022/04/22 05:47:52;;;;;;;9.68;2.25;;;;;;;13.36;66.39;101196.56;5035634;28;20429;-50
2022/04/22 05:50:21;;;;;;;11.02;2.47;;;;;;;13.21;66.96;101190.63;5035712;28;20394;-50
2022/04/22 05:52:48;;;;;;;7.45;3.15;;;;;;;13.27;66.72;101183.56;5034837;28;20032;-50
2022/04/22 05:55:17;;;;;;;9.85;2.38;;;;;;;13.38;66.15;101194.50;5035509;28;20389;-50
2022/04/22 05:57:45;;;;;;;10.35;2.80;;;;;;;13.41;65.64;101199.41;5035658;28;20139;-51
2022/04/22 06:00:14;;;;;;;10.18;2.45;;;;;;;13.21;67.26;101193.31;5035277;28;20044;-50
2022/04/22 06:02:44;;;;;;;10.80;2.60;;;;;;;13.29;66.71;101189.56;5035382;28;20115;-50
2022/04/22 06:05:22;;;;;;;15.18;2.90;;;;;;;13.25;66.46;101191.84;5035096;28;20475;-50
2022/04/22 06:10:39;;;;;;;6.22;2.10;;;;;;;13.25;66.63;101199.91;5016030;28;20032;-48
2022/04/22 06:13:06;;;;;;;8.88;2.30;;;;;;;13.30;66.03;101197.41;5035522;28;20461;-49
2022/04/22 06:15:33;;;;;;;13.60;3.00;;;;;;;13.17;67.16;101192.91;5035234;28;20036;-49
2022/04/22 06:18:00;;;;;;;12.70;2.47;;;;;;;13.24;66.79;101186.69;5035330;28;20037;-51
2022/04/22 06:20:26;;;;;;;7.63;2.35;;;;;;;13.27;66.78;101192.50;5034779;28;20492;-47
2022/04/22 06:22:52;;;;;;;11.13;2.80;;;;;;;13.29;66.88;101197.63;5035033;28;20033;-47
2022/04/22 06:25:20;;;;;;;11.90;2.95;;;;;;;13.22;66.30;101199.53;5034933;28;20096;-49
2022/04/22 06:27:47;;;;;;;9.25;2.35;;;;;;;13.24;65.15;101192.91;5034769;28;20161;-50
2022/04/22 06:30:14;;;;;;;7.22;2.00;;;;;;;13.18;64.73;101193.72;5034877;28;20449;-50
2022/04/22 06:32:43;;;;;;;8.95;2.17;;;;;;;12.96;65.17;101195.91;5034812;28;20112;-48
2022/04/22 06:35:11;;;;;;;9.02;1.85;;;;;;;12.94;64.92;101198.81;5035231;28;20484;-48
2022/04/22 06:37:40;;;;;;;6.38;1.75;;;;;;;13.09;64.29;101208.44;5035092;28;20060;-50
2022/04/22 06:45:46;;;;;;;5.78;1.77;;;;;;;12.87;63.27;101213.28;5034953;28;20029;-48
2022/04/22 06:48:17;;;;;;;6.47;1.42;;;;;;;12.92;62.42;101214.28;5034708;28;20057;-50
2022/04/22 06:50:46;;;;;;;6.82;2.10;;;;;;;12.83;62.60;101215.59;5034372;28;20032;-51
2022/04/22 06:53:15;;;;;;;5.30;1.45;;;;;;;12.85;61.54;101210.81;5034379;28;20034;-50
2022/04/22 06:55:41;;;;;;;6.22;1.40;;;;;;;12.88;61.17;101215.78;5034353;28;20029;-48
2022/04/22 06:58:13;;;;;;;7.43;1.40;;;;;;;12.82;61.03;101221.97;5034279;28;20040;-51
2022/04/22 07:00:40;;;;;;;4.95;1.30;;;;;;;12.79;61.06;101217.03;5033030;28;20389;-49
2022/04/22 07:03:07;;;;;;;4.43;1.10;;;;;;;12.63;61.59;101218.31;5034305;28;20045;-50
2022/04/22 07:05:35;;;;;;;7.50;1.48;;;;;;;12.56;61.80;101227.44;5034140;28;20022;-47
2022/04/22 07:08:06;;;;;;;3.95;1.63;;;;;;;12.51;62.25;101224.53;5034068;28;20116;-51
2022/04/22 07:10:35;;;;;;;4.47;1.23;;;;;;;12.51;62.63;101230.72;5034147;28;20056;-50
2022/04/22 07:13:02;;;;;;;5.07;1.73;;;;;;;12.65;62.20;101226.97;5033915;28;20022;-47
2022/04/22 07:15:29;;;;;;;3.55;1.30;;;;;;;12.63;62.74;101233.59;5034204;28;20116;-49
2022/04/22 07:17:55;;;;;;;5.22;1.40;;;;;;;12.60;62.54;101239.38;5033438;28;20033;-51
2022/04/22 07:20:22;;;;;;;4.88;1.98;;;;;;;12.66;62.51;101238.56;5033734;28;20052;-48
2022/04/22 07:22:49;;;;;;;4.97;1.63;;;;;;;12.78;62.04;101241.44;5033754;28;20457;-49
2022/04/22 07:25:17;;;;;;;11.65;2.05;;;;;;;12.69;62.65;101244.31;5033579;28;20060;-47
2022/04/22 07:27:45;;;;;;;6.05;1.50;;;;;;;12.75;62.44;101250.72;5033462;28;20105;-50
2022/04/22 07:30:13;;;;;;;5.68;1.60;;;;;;;12.81;62.35;101241.81;5033657;28;20079;-50
2022/04/22 07:32:41;;;;;;;9.45;1.75;;;;;;;12.66;62.51;101250.13;5033778;28;20029;-50
2022/04/22 07:35:12;;;;;;;6.18;1.63;;;;;;;12.69;62.48;101247.00;5034718;28;20034;-50
2022/04/22 07:37:42;;;;;;;5.72;1.50;;;;;;;12.81;62.31;101257.94;5033708;28;20104;-50
2022/04/22 07:40:09;;;;;;;8.07;1.38;;;;;;;12.81;62.73;101263.31;5033710;28;20469;-50
2022/04/22 07:42:37;;;;;;;4.97;1.95;;;;;;;12.76;62.85;101257.72;5033688;28;20036;-47
2022/04/22 07:47:51;;;;;;;4.30;1.48;;;;;;;12.88;61.83;101256.06;5034004;28;20032;-47
2022/04/22 07:50:18;;;;;;;3.33;1.15;;;;;;;12.97;60.60;101258.50;5033260;28;20443;-50
2022/04/22 07:52:46;;;;;;;5.88;1.35;;;;;;;12.87;61.21;101262.47;5033261;28;20576;-49
2022/04/22 07:55:13;;;;;;;2.20;1.00;;;;;;;12.92;59.54;101265.34;5033420;28;20033;-48
2022/04/22 07:57:40;;;;;;;4.18;1.10;;;;;;;12.81;59.94;101270.53;5032979;28;20117;-47
2022/04/22 08:00:08;;;;;;;7.20;1.20;;;;;;;12.61;60.51;101268.72;5032940;28;20021;-47
2022/04/22 08:02:34;;;;;;;4.50;1.02;;;;;;;12.79;59.61;101260.00;5033277;28;20048;-47
2022/04/22 08:05:01;;;;;;;2.67;1.10;;;;;;;12.85;59.52;101258.34;5033338;28;20112;-47
2022/04/22 08:07:27;;;;;;;3.50;1.00;;;;;;;12.82;60.25;101272.19;5033099;28;20037;-47
2022/04/22 08:09:53;;;;;;;3.90;1.10;;;;;;;12.89;59.76;101259.59;5032634;28;20418;-50
2022/04/22 08:12:19;;;;;;;4.85;0.93;;;;;;;12.63;60.50;101249.72;5032861;28;20466;-50
2022/04/22 08:14:46;;;;;;;6.28;1.30;;;;;;;12.41;61.18;101260.69;5032508;28;20367;-49
2022/04/22 08:17:12;;;;;;;3.45;1.00;;;;;;;12.45;61.40;101253.06;5033758;28;20036;-47
2022/04/22 08:19:40;;;;;;;6.15;1.20;;;;;;;12.41;61.34;101252.63;5032912;28;20029;-50
2022/04/22 08:22:06;;;;;;;3.35;0.70;;;;;;;12.53;61.03;101258.19;5032685;28;20436;-47
2022/04/22 08:24:32;;;;;;;3.25;1.20;;;;;;;12.49;61.17;101248.06;5032835;28;20021;-48
2022/04/22 08:26:58;;;;;;;3.42;0.98;;;;;;;12.47;61.34;101250.97;5032316;28;20025;-51
2022/04/22 08:29:25;;;;;;;4.57;1.23;;;;;;;12.46;61.05;101256.56;5032730;28;20041;-49
2022/04/22 08:31:52;;;;;;;6.13;1.08;;;;;;;12.38;60.91;101241.47;5032567;28;20061;-48
2022/04/22 08:34:19;;;;;;;2.53;0.90;;;;;;;12.38;60.99;101239.66;5032484;28;20079;-49
2022/04/22 08:36:47;;;;;;;3.00;0.98;;;;;;;12.35;61.81;101242.72;5032485;28;20045;-50
2022/04/22 08:39:15;;;;;;;4.82;1.00;;;;;;;12.49;61.27;101245.38;5032713;28;20469;-51
2022/04/22 08:41:42;;;;;;;5.60;0.93;;;;;;;12.22;61.98;101244.59;5032712;28;20087;-49
2022/04/22 08:44:13;;;;;;;5.97;1.10;;;;;;;12.33;61.34;101242.13;5032596;28;20371;-50
2022/04/22 08:52:17;;;;;;;2.60;1.10;;;;;;;12.16;62.01;101238.22;5033255;28;20067;-49
2022/04/22 08:54:45;;;;;;;4.05;1.00;;;;;;;12.09;62.21;101238.19;5032624;28;20030;-51
2022/04/22 08:57:12;;;;;;;4.75;1.10;;;;;;;12.06;62.33;101243.16;5032462;28;20028;-49
2022/04/22 08:59:38;;;;;;;3.40;0.98;;;;;;;12.02;62.48;101244.59;5031939;28;20152;-51
2022/04/22 09:02:05;;;;;;;2.75;1.08;;;;;;;11.96;62.88;101234.69;5032513;28;20051;-50
2022/04/22 09:04:31;;;;;;;4.75;0.95;;;;;;;11.98;62.61;101249.53;5032499;28;20068;-50
2022/04/22 09:06:59;;;;;;;2.67;0.82;;;;;;;11.92;63.05;101241.47;5032185;28;20030;-50
2022/04/22 09:09:25;;;;;;;5.07;1.33;;;;;;;11.91;63.16;101245.19;5031939;28;20039;-49
2022/04/22 09:11:52;;;;;;;5.85;1.08;;;;;;;12.00;63.40;101250.16;5032149;28;20030;-49
2022/04/22 09:14:23;;;;;;;6.80;1.45;;;;;;;11.93;63.78;101251.16;5032481;28;20488;-47
2022/04/22 09:16:51;;;;;;;3.22;1.40;;;;;;;11.87;63.93;101256.31;5032253;28;20032;-47
2022/04/22 09:19:18;;;;;;;4.65;1.42;;;;;;;11.79;64.36;101245.78;5032239;28;20060;-51
2022/04/22 09:22:05;;;;;;;5.30;1.65;;;;;;;11.71;64.94;101245.13;5032627;28;20429;-50
2022/04/22 09:24:31;;;;;;;4.30;1.30;;;;;;;11.76;65.24;101239.97;5032324;28;20443;-50
2022/04/22 09:27:08;;;;;;;5.22;1.38;;;;;;;11.84;65.18;101232.59;5032900;28;20113;-50
2022/04/22 09:29:50;;;;;;;5.13;1.15;;;;;;;11.66;65.28;101229.66;5035911;28;20029;-50
2022/04/22 09:32:22;;;;;;;4.68;1.20;;;;;;;11.56;65.33;101231.91;5036082;28;20030;-49
2022/04/22 09:34:49;;;;;;;3.33;1.15;;;;;;;11.58;65.30;101232.53;5035950;28;20029;-48
2022/04/22 09:42:53;;;;;;;5.05;1.02;;;;;;;11.34;65.46;101239.28;5036407;28;20032;-49
2022/04/22 09:45:20;;;;;;;3.83;1.00;;;;;;;11.39;65.47;101242.19;5035565;28;20084;-50
2022/04/22 09:47:59;;;;;;;8.00;1.42;;;;;;;11.17;66.58;101248.69;5035769;28;20032;-48
2022/04/22 09:50:45;;;;;;;5.60;1.15;;;;;;;10.67;68.50;101254.19;5035639;28;20117;-50
2022/04/22 09:53:13;;;;;;;4.25;1.67;;;;;;;10.95;67.15;101256.84;5035474;28;20410;-47
2022/04/22 09:55:47;;;;;;;6.03;1.98;;;;;;;11.06;66.85;101255.44;5035434;28;20492;-50
2022/04/22 09:58:26;;;;;;;4.35;0.90;;;;;;;11.14;66.61;101252.59;5035638;28;20037;-48
2022/04/22 10:01:01;;;;;;;5.75;1.42;;;;;;;11.11;66.75;101255.69;5035278;28;20053;-48
2022/04/22 10:03:34;;;;;;;3.95;1.08;;;;;;;11.05;67.32;101256.47;5035270;28;20030;-50
2022/04/22 10:06:01;;;;;;;4.47;1.10;;;;;;;11.08;67.00;101256.88;5035326;28;20033;-51
2022/04/22 10:08:33;;;;;;;3.20;1.10;;;;;;;10.90;67.89;101263.81;5035331;28;20140;-49
2022/04/22 10:11:02;;;;;;;3.80;1.30;;;;;;;10.93;67.63;101263.41;5035181;28;20491;-49
2022/04/22 10:13:39;;;;;;;4.75;1.38;;;;;;;10.95;68.10;101270.22;5034946;28;20026;-50
2022/04/22 10:16:09;;;;;;;6.13;1.58;;;;;;;10.89;68.35;101271.03;5034982;28;20115;-48
2022/04/22 10:18:35;;;;;;;3.85;1.33;;;;;;;11.02;67.92;101271.06;5035126;28;20025;-47
2022/04/22 10:21:03;;;;;;;4.65;1.42;;;;;;;11.03;67.76;101275.41;5035122;28;20033;-47
2022/04/22 10:23:30;;;;;;;6.63;1.35;;;;;;;11.18;67.58;101280.63;5035018;28;20068;-47
2022/04/22 10:25:57;;;;;;;5.47;1.33;;;;;;;11.44;67.33;101282.63;5034758;28;20405;-50
2022/04/22 10:28:25;;;;;;;7.43;1.73;;;;;;;11.32;67.53;101282.34;5034642;28;20041;-47
2022/04/22 10:30:54;;;;;;;6.20;1.20;;;;;;;11.23;67.96;101282.72;5034775;28;20053;-50
2022/04/22 10:33:47;;;;;;;4.65;1.52;;;;;;;11.32;67.75;101279.66;5034896;28;20021;-50
2022/04/22 10:36:16;;;;;;;4.38;1.40;;;;;;;11.14;68.11;101278.56;5033944;28;20125;-47
2022/04/22 10:38:46;;;;;;;3.03;1.00;;;;;;;11.03;68.56;101275.41;5034300;28;20457;-50
2022/04/22 10:41:14;;;;;;;4.20;1.02;;;;;;;10.82;69.19;101284.34;5034560;28;20470;-49
2022/04/22 10:43:41;;;;;;;6.05;1.60;;;;;;;10.53;70.16;101285.38;5034609;28;20021;-50
2022/04/22 10:49:14;;;;;;;6.30;1.15;;;;;;;10.84;68.88;101285.00;5034680;28;20398;-50
2022/04/22 10:52:00;;;;;;;3.05;1.20;;;;;;;11.00;68.17;101283.03;5034387;28;20473;-47
2022/04/22 10:54:51;;;;;;;5.43;1.20;;;;;;;11.02;68.06;101280.97;5034589;28;20061;-50
2022/04/22 10:57:23;;;;;;;3.42;0.93;;;;;;;11.07;67.61;101289.25;5034262;28;20032;-50
2022/04/22 11:00:07;;;;;;;7.38;1.30;;;;;;;10.88;68.38;101292.63;5034190;28;20152;-50
2022/04/22 11:02:41;;;;;;;4.32;1.52;;;;;;;10.88;68.13;101287.25;5034278;28;20120;-48
2022/04/22 11:05:25;;;;;;;4.47;1.45;;;;;;;10.88;68.55;101293.44;5034418;28;20041;-51
2022/04/22 11:07:56;;;;;;;4.00;1.25;;;;;;;11.06;67.53;101296.44;5034364;28;20037;-50
2022/04/22 11:10:27;;;;;;;4.70;1.20;;;;;;;10.72;68.81;101299.97;5034026;28;20029;-51
2022/04/22 11:12:55;;;;;;;2.97;0.90;;;;;;;10.82;68.13;101292.38;5033912;28;20442;-50
2022/04/22 11:15:43;;;;;;;6.25;1.25;;;;;;;10.92;68.03;101296.56;5033863;28;20029;-50
2022/04/22 11:18:17;;;;;;;6.60;1.40;;;;;;;10.89;67.67;101289.75;5034124;28;20470;-50
2022/04/22 11:20:51;;;;;;;4.75;1.00;;;;;;;10.82;67.77;101289.69;5033689;28;20079;-48
2022/04/22 11:23:18;;;;;;;4.53;1.33;;;;;;;11.25;66.98;101291.38;5033796;28;20025;-48
2022/04/22 11:25:46;;;;;;;4.28;1.00;;;;;;;11.10;67.24;101296.88;5033164;28;20061;-47
2022/04/22 11:28:13;;;;;;;6.60;1.65;;;;;;;10.88;67.86;101304.16;5033775;28;20053;-50
2022/04/22 11:30:40;;;;;;;3.30;1.35;;;;;;;10.89;68.35;101291.63;5033694;28;20037;-49
2022/04/22 11:33:24;;;;;;;4.57;1.40;;;;;;;10.55;69.64;101288.72;5033525;28;20058;-47
2022/04/22 11:35:59;;;;;;;2.42;1.25;;;;;;;10.63;69.31;101285.06;5033707;28;20489;-50
2022/04/22 11:38:26;;;;;;;3.78;1.00;;;;;;;10.65;69.36;101290.22;5033467;28;20454;-47
2022/04/22 11:40:52;;;;;;;5.63;1.55;;;;;;;10.68;69.42;101290.66;5033668;28;20038;-48
2022/04/22 11:43:20;;;;;;;3.03;1.20;;;;;;;10.70;69.51;101295.81;5033540;28;20022;-49
2022/04/22 11:45:49;;;;;;;7.57;1.50;;;;;;;9.80;72.61;101294.59;5033337;28;20030;-50
2022/04/22 11:48:22;;;;;;;6.32;1.75;;;;;;;9.51;74.58;101299.00;5033247;28;20022;-49
2022/04/22 11:50:50;;;;;;;3.67;1.17;;;;;;;9.63;74.07;101291.31;5032865;28;20503;-47
2022/04/22 11:53:22;;;;;;;5.53;1.10;;;;;;;9.62;74.11;101295.03;5033464;28;20038;-50
2022/04/22 11:55:49;;;;;;;9.82;1.90;;;;;;;9.33;74.92;101290.56;5033388;28;20022;-48
2022/04/22 11:58:19;;;;;;;2.65;1.48;;;;;;;9.12;76.35;101295.84;5033340;28;20051;-49
2022/04/22 12:06:16;;;;;;;4.72;1.60;;;;;;;9.40;75.56;101290.66;5033236;28;20060;-47
2022/04/22 12:08:55;;;;;;;5.63;1.38;;;;;;;9.13;76.86;101292.16;5033465;28;20028;-50
2022/04/22 12:11:23;;;;;;;6.40;1.80;;;;;;;9.12;76.65;101296.66;5032844;28;20033;-47
2022/04/22 12:13:50;;;;;;;5.38;1.63;;;;;;;9.07;76.99;101304.41;5033147;28;20045;-48
2022/04/22 12:16:26;;;;;;;7.55;1.20;;;;;;;9.11;76.75;101313.72;5032669;28;20025;-47
2022/04/22 12:18:56;;;;;;;4.40;1.10;;;;;;;9.10;77.08;101309.34;5032777;28;20021;-46
2022/04/22 12:21:24;;;;;;;5.88;1.58;;;;;;;9.10;77.51;101311.19;5032645;28;20033;-50
2022/04/22 12:23:57;;;;;;;6.80;1.63;;;;;;;9.31;76.78;101315.78;5032716;28;20045;-47
2022/04/22 12:26:30;;;;;;;7.13;1.33;;;;;;;9.36;76.28;101316.91;5032692;28;20106;-49
2022/04/22 12:29:11;;;;;;;5.50;1.45;;;;;;;9.29;76.29;101312.50;5032666;28;20033;-47
2022/04/22 12:31:40;;;;;;;1.88;1.10;;;;;;;9.40;76.43;101322.72;5032759;28;20037;-49
2022/04/22 12:34:10;;;;;;;8.40;1.40;;;;;;;9.98;74.25;101326.25;5032825;28;20389;-47
2022/04/22 12:36:39;;;;;;;5.30;1.17;;;;;;;10.07;73.23;101343.81;5032692;28;20021;-47